createdAt,value
2018-11-22T00:00:23.736Z,1.10
2018-11-22T00:01:23.729Z,1.03
2018-11-22T00:02:23.725Z,1.06
2018-11-22T00:03:23.715Z,1.03
2018-11-22T00:04:23.749Z,1.12
2018-11-22T00:05:23.702Z,1.10
2018-11-22T00:06:23.697Z,1.06
2018-11-22T00:07:23.689Z,1.10
2018-11-22T00:08:23.679Z,1.04
2018-11-22T00:09:23.706Z,1.10
2018-11-22T00:10:23.668Z,1.00
2018-11-22T00:11:23.666Z,0.97
2018-11-22T00:12:23.649Z,1.00
2018-11-22T00:13:23.639Z,1.08
2018-11-22T00:14:23.678Z,1.07
2018-11-22T00:15:23.632Z,0.97
2018-11-22T00:16:23.624Z,1.06
2018-11-22T00:17:23.624Z,1.01
2018-11-22T00:18:23.608Z,1.01
2018-11-22T00:19:23.640Z,1.03
2018-11-22T00:20:23.596Z,1.00
2018-11-22T00:21:23.592Z,1.07
2018-11-22T00:22:23.584Z,1.10
2018-11-22T00:23:23.576Z,1.18
2018-11-22T00:24:23.604Z,1.15
2018-11-22T00:25:23.561Z,1.10
2018-11-22T00:26:23.555Z,1.03
2018-11-22T00:27:23.547Z,1.06
2018-11-22T00:28:23.541Z,1.03
2018-11-22T00:29:23.568Z,1.10
2018-11-22T00:30:23.523Z,1.06
2018-11-22T00:31:23.518Z,1.07
2018-11-22T00:32:23.511Z,1.04
2018-11-22T00:33:23.500Z,1.06
2018-11-22T00:34:23.535Z,1.08
2018-11-22T00:35:23.492Z,1.06
2018-11-22T00:36:23.483Z,1.07
2018-11-22T00:37:23.475Z,1.10
2018-11-22T00:38:23.470Z,1.07
2018-11-22T00:39:23.498Z,1.06
2018-11-22T00:40:23.454Z,0.98
2018-11-22T00:41:23.444Z,1.06
2018-11-22T00:42:23.441Z,1.10
2018-11-22T00:43:23.435Z,1.08
2018-11-22T00:44:23.458Z,1.03
2018-11-22T00:45:23.419Z,1.01
2018-11-22T00:46:23.417Z,1.04
2018-11-22T00:47:23.406Z,1.04
2018-11-22T00:48:23.397Z,1.07
2018-11-22T00:49:23.429Z,1.03
2018-11-22T00:50:23.385Z,1.10
2018-11-22T00:51:23.375Z,1.07
2018-11-22T00:52:23.369Z,1.14
2018-11-22T00:53:23.365Z,1.10
2018-11-22T00:54:23.392Z,1.18
2018-11-22T00:55:23.355Z,1.03
2018-11-22T00:56:23.338Z,1.10
2018-11-22T00:57:23.333Z,1.15
2018-11-22T00:58:23.365Z,1.07
2018-11-22T00:59:23.320Z,1.07
2018-11-22T01:00:23.312Z,1.18
2018-11-22T01:01:23.306Z,1.18
2018-11-22T01:02:23.300Z,1.10
2018-11-22T01:03:23.332Z,1.14
2018-11-22T01:04:23.283Z,1.18
2018-11-22T01:05:23.280Z,1.18
2018-11-22T01:06:23.274Z,1.12
2018-11-22T01:07:23.271Z,1.19
2018-11-22T01:08:23.293Z,1.01
2018-11-22T01:09:23.288Z,1.18
2018-11-22T01:10:23.243Z,1.16
2018-11-22T01:11:23.231Z,1.22
2018-11-22T01:12:23.230Z,1.16
2018-11-22T01:13:23.223Z,1.21
2018-11-22T01:14:23.252Z,1.15
2018-11-22T01:15:23.208Z,1.15
2018-11-22T01:16:23.200Z,1.12
2018-11-22T01:17:23.195Z,1.14
2018-11-22T01:18:23.220Z,1.12
2018-11-22T01:19:23.179Z,1.10
2018-11-22T01:20:23.172Z,1.07
2018-11-22T01:21:23.168Z,1.10
2018-11-22T01:22:23.159Z,1.08
2018-11-22T01:23:23.187Z,1.00
2018-11-22T01:24:23.147Z,1.21
2018-11-22T01:25:23.135Z,1.18
2018-11-22T01:26:23.133Z,1.12
2018-11-22T01:27:23.126Z,1.07
2018-11-22T01:28:23.150Z,1.12
2018-11-22T01:29:23.107Z,1.12
2018-11-22T01:30:23.102Z,1.12
2018-11-22T01:31:23.098Z,1.08
2018-11-22T01:32:23.094Z,1.08
2018-11-22T01:33:23.120Z,1.06
2018-11-22T01:34:23.074Z,1.04
2018-11-22T01:35:23.070Z,1.14
2018-11-22T01:36:23.062Z,1.19
2018-11-22T01:37:23.056Z,1.25
2018-11-22T01:38:23.082Z,1.08
2018-11-22T01:39:23.042Z,1.01
2018-11-22T01:40:23.034Z,1.03
2018-11-22T01:41:23.028Z,1.06
2018-11-22T01:42:23.022Z,1.16
2018-11-22T01:43:23.050Z,1.12
2018-11-22T01:44:23.002Z,1.18
2018-11-22T01:45:23.006Z,1.21
2018-11-22T01:46:22.994Z,1.19
2018-11-22T01:47:22.986Z,1.21
2018-11-22T01:48:23.014Z,1.12
2018-11-22T01:49:22.969Z,1.18
2018-11-22T01:50:22.961Z,1.16
2018-11-22T01:51:22.961Z,1.15
2018-11-22T01:52:22.992Z,1.16
2018-11-22T01:53:22.946Z,1.12
2018-11-22T01:54:22.937Z,1.14
2018-11-22T01:55:22.937Z,1.18
2018-11-22T01:56:22.917Z,1.07
2018-11-22T01:57:22.954Z,1.12
2018-11-22T01:58:22.909Z,1.10
2018-11-22T01:59:22.976Z,1.08
2018-11-22T02:00:22.899Z,1.15
2018-11-22T02:01:22.889Z,1.12
2018-11-22T02:02:22.918Z,1.15
2018-11-22T02:03:22.872Z,1.18
2018-11-22T02:04:22.866Z,1.21
2018-11-22T02:05:22.860Z,1.18
2018-11-22T02:06:22.855Z,1.14
2018-11-22T02:07:22.880Z,1.24
2018-11-22T02:08:22.845Z,1.26
2018-11-22T02:09:22.831Z,1.18
2018-11-22T02:10:22.861Z,1.22
2018-11-22T02:11:22.819Z,1.15
2018-11-22T02:12:22.811Z,1.22
2018-11-22T02:13:22.840Z,1.15
2018-11-22T02:14:22.799Z,1.15
2018-11-22T02:15:22.795Z,1.21
2018-11-22T02:16:22.780Z,1.24
2018-11-22T02:17:22.816Z,1.19
2018-11-22T02:18:22.771Z,1.26
2018-11-22T02:19:22.768Z,1.32
2018-11-22T02:20:22.755Z,1.19
2018-11-22T02:21:22.751Z,1.16
2018-11-22T02:22:22.779Z,1.16
2018-11-22T02:23:22.735Z,1.12
2018-11-22T02:24:22.732Z,1.15
2018-11-22T02:25:22.714Z,1.19
2018-11-22T02:26:22.723Z,1.18
2018-11-22T02:27:22.753Z,1.16
2018-11-22T02:28:22.698Z,1.15
2018-11-22T02:29:22.695Z,1.16
2018-11-22T02:30:22.725Z,1.16
2018-11-22T02:31:22.684Z,1.15
2018-11-22T02:32:22.679Z,1.15
2018-11-22T02:33:22.700Z,1.24
2018-11-22T02:34:22.658Z,1.19
2018-11-22T02:35:22.651Z,1.16
2018-11-22T02:36:22.643Z,1.12
2018-11-22T02:37:22.642Z,1.10
2018-11-22T02:38:22.666Z,1.22
2018-11-22T02:39:22.630Z,1.14
2018-11-22T02:40:22.618Z,1.08
2018-11-22T02:41:22.636Z,1.15
2018-11-22T02:42:22.598Z,1.06
2018-11-22T02:43:22.631Z,1.08
2018-11-22T02:44:22.593Z,1.06
2018-11-22T02:45:22.581Z,1.07
2018-11-22T02:46:22.574Z,1.07
2018-11-22T02:47:22.569Z,1.08
2018-11-22T02:48:22.597Z,1.06
2018-11-22T02:49:22.557Z,1.08
2018-11-22T02:50:22.549Z,1.14
2018-11-22T02:51:22.541Z,1.06
2018-11-22T02:52:22.535Z,1.14
2018-11-22T02:53:22.565Z,1.16
2018-11-22T02:54:22.522Z,1.16
2018-11-22T02:55:22.517Z,1.15
2018-11-22T02:56:22.501Z,1.22
2018-11-22T02:57:22.507Z,1.04
2018-11-22T02:58:22.533Z,1.07
2018-11-22T02:59:22.484Z,1.08
2018-11-22T03:00:22.481Z,1.12
2018-11-22T03:01:22.487Z,1.16
2018-11-22T03:02:22.480Z,1.22
2018-11-22T03:03:22.501Z,1.18
2018-11-22T03:04:22.465Z,1.19
2018-11-22T03:05:22.456Z,1.19
2018-11-22T03:06:22.448Z,1.25
2018-11-22T03:07:22.449Z,1.26
2018-11-22T03:08:22.462Z,1.33
2018-11-22T03:09:22.427Z,1.25
2018-11-22T03:10:22.424Z,1.24
2018-11-22T03:11:22.449Z,1.24
2018-11-22T03:12:22.405Z,1.24
2018-11-22T03:13:22.411Z,1.19
2018-11-22T03:14:22.425Z,1.12
2018-11-22T03:15:22.388Z,1.14
2018-11-22T03:16:22.380Z,1.15
2018-11-22T03:17:22.377Z,1.15
2018-11-22T03:18:22.369Z,1.10
2018-11-22T03:19:22.388Z,1.08
2018-11-22T03:20:22.358Z,1.08
2018-11-22T03:21:22.352Z,1.16
2018-11-22T03:22:22.339Z,1.12
2018-11-22T03:23:22.334Z,1.15
2018-11-22T03:24:22.491Z,1.18
2018-11-22T03:25:22.319Z,1.21
2018-11-22T03:26:22.314Z,1.16
2018-11-22T03:27:22.302Z,1.26
2018-11-22T03:28:22.300Z,1.21
2018-11-22T03:29:22.319Z,1.29
2018-11-22T03:30:22.284Z,1.25
2018-11-22T03:31:22.279Z,1.32
2018-11-22T03:32:22.274Z,1.25
2018-11-22T03:33:22.262Z,1.15
2018-11-22T03:34:22.289Z,1.24
2018-11-22T03:35:22.259Z,1.16
2018-11-22T03:36:22.273Z,1.22
2018-11-22T03:37:22.230Z,1.19
2018-11-22T03:38:22.230Z,1.25
2018-11-22T03:39:22.220Z,1.25
2018-11-22T03:40:22.242Z,1.24
2018-11-22T03:41:22.210Z,1.19
2018-11-22T03:42:22.202Z,1.32
2018-11-22T03:43:22.193Z,1.24
2018-11-22T03:44:22.186Z,1.18
2018-11-22T03:45:22.206Z,1.12
2018-11-22T03:46:22.173Z,1.22
2018-11-22T03:47:22.165Z,1.16
2018-11-22T03:48:22.158Z,1.16
2018-11-22T03:49:22.154Z,1.22
2018-11-22T03:50:22.177Z,1.25
2018-11-22T03:51:22.138Z,1.24
2018-11-22T03:52:22.133Z,1.19
2018-11-22T03:53:22.130Z,1.21
2018-11-22T03:54:22.118Z,1.28
2018-11-22T03:55:22.140Z,1.37
2018-11-22T03:56:22.106Z,1.25
2018-11-22T03:57:22.105Z,1.28
2018-11-22T03:58:22.089Z,1.22
2018-11-22T03:59:22.077Z,1.19
2018-11-22T04:00:22.105Z,1.18
2018-11-22T04:01:22.068Z,1.22
2018-11-22T04:02:22.057Z,1.22
2018-11-22T04:03:22.062Z,1.19
2018-11-22T04:04:22.048Z,1.29
2018-11-22T04:05:22.067Z,1.29
2018-11-22T04:06:22.032Z,1.29
2018-11-22T04:07:22.028Z,1.18
2018-11-22T04:08:22.021Z,1.19
2018-11-22T04:09:22.012Z,1.32
2018-11-22T04:10:22.032Z,1.18
2018-11-22T04:11:22.002Z,1.21
2018-11-22T04:12:21.992Z,1.25
2018-11-22T04:13:21.990Z,1.24
2018-11-22T04:14:21.976Z,1.22
2018-11-22T04:15:22.003Z,1.19
2018-11-22T04:16:21.964Z,1.29
2018-11-22T04:17:21.988Z,1.32
2018-11-22T04:18:21.951Z,1.21
2018-11-22T04:19:21.942Z,1.25
2018-11-22T04:20:21.940Z,1.26
2018-11-22T04:21:21.967Z,1.28
2018-11-22T04:22:21.927Z,1.24
2018-11-22T04:23:21.919Z,1.22
2018-11-22T04:24:21.912Z,1.26
2018-11-22T04:25:21.907Z,1.28
2018-11-22T04:26:24.101Z,1.25
2018-11-22T04:27:21.895Z,1.25
2018-11-22T04:28:21.887Z,1.21
2018-11-22T04:29:21.871Z,1.33
2018-11-22T04:30:21.873Z,1.24
2018-11-22T04:31:21.891Z,1.25
2018-11-22T04:32:21.854Z,1.18
2018-11-22T04:33:21.844Z,1.22
2018-11-22T04:34:21.843Z,1.33
2018-11-22T04:35:21.831Z,1.36
2018-11-22T04:36:21.860Z,1.22
2018-11-22T04:37:21.852Z,1.22
2018-11-22T04:38:21.815Z,1.32
2018-11-22T04:39:21.810Z,1.36
2018-11-22T04:40:21.802Z,1.40
2018-11-22T04:41:21.822Z,1.26
2018-11-22T04:42:21.790Z,1.37
2018-11-22T04:43:21.786Z,1.37
2018-11-22T04:44:21.774Z,1.26
2018-11-22T04:45:21.773Z,1.36
2018-11-22T04:46:21.789Z,1.44
2018-11-22T04:47:21.754Z,1.33
2018-11-22T04:48:21.746Z,1.24
2018-11-22T04:49:21.741Z,1.25
2018-11-22T04:50:21.734Z,1.34
2018-11-22T04:51:21.754Z,1.33
2018-11-22T04:52:21.718Z,1.29
2018-11-22T04:53:21.715Z,1.44
2018-11-22T04:54:21.707Z,1.28
2018-11-22T04:55:21.701Z,1.34
2018-11-22T04:56:21.721Z,1.39
2018-11-22T04:57:21.685Z,1.37
2018-11-22T04:58:21.690Z,1.44
2018-11-22T04:59:21.675Z,1.40
2018-11-22T05:00:21.675Z,1.40
2018-11-22T05:01:21.694Z,1.44
2018-11-22T05:02:21.682Z,1.40
2018-11-22T05:03:21.647Z,1.42
2018-11-22T05:04:22.318Z,1.51
2018-11-22T05:05:21.628Z,1.39
2018-11-22T05:06:21.625Z,1.50
2018-11-22T05:07:21.648Z,1.50
2018-11-22T05:08:21.611Z,1.39
2018-11-22T05:09:21.624Z,1.42
2018-11-22T05:10:21.604Z,1.43
2018-11-22T05:11:21.594Z,1.42
2018-11-22T05:12:21.612Z,1.29
2018-11-22T05:13:21.579Z,1.32
2018-11-22T05:14:21.576Z,1.36
2018-11-22T05:15:21.566Z,1.39
2018-11-22T05:16:21.552Z,1.40
2018-11-22T05:17:21.581Z,1.34
2018-11-22T05:18:21.544Z,1.37
2018-11-22T05:19:21.542Z,1.37
2018-11-22T05:20:21.532Z,1.37
2018-11-22T05:21:21.527Z,1.34
2018-11-22T05:22:21.547Z,1.42
2018-11-22T05:23:21.511Z,1.33
2018-11-22T05:24:21.501Z,1.22
2018-11-22T05:25:21.497Z,1.29
2018-11-22T05:26:21.492Z,1.25
2018-11-22T05:27:21.517Z,1.26
2018-11-22T05:28:21.503Z,1.32
2018-11-22T05:29:21.471Z,1.42
2018-11-22T05:30:21.467Z,1.39
2018-11-22T05:31:21.458Z,1.37
2018-11-22T05:32:21.448Z,1.42
2018-11-22T05:33:21.479Z,1.36
2018-11-22T05:34:21.438Z,1.36
2018-11-22T05:35:21.433Z,1.39
2018-11-22T05:36:21.437Z,1.40
2018-11-22T05:37:21.435Z,1.37
2018-11-22T05:38:21.439Z,1.42
2018-11-22T05:39:21.410Z,1.33
2018-11-22T05:40:21.398Z,1.34
2018-11-22T05:41:21.393Z,1.32
2018-11-22T05:42:21.383Z,1.25
2018-11-22T05:43:21.406Z,1.42
2018-11-22T05:44:21.486Z,1.40
2018-11-22T05:45:21.362Z,1.40
2018-11-22T05:46:21.357Z,1.40
2018-11-22T05:47:21.353Z,1.37
2018-11-22T05:48:21.369Z,1.39
2018-11-22T05:49:21.337Z,1.37
2018-11-22T05:50:21.330Z,1.37
2018-11-22T05:51:21.325Z,1.44
2018-11-22T05:52:21.318Z,1.42
2018-11-22T05:53:21.341Z,1.42
2018-11-22T05:54:21.306Z,1.42
2018-11-22T05:55:21.300Z,1.46
2018-11-22T05:56:21.291Z,1.46
2018-11-22T05:57:21.285Z,1.52
2018-11-22T05:58:21.304Z,1.46
2018-11-22T05:59:21.267Z,1.52
2018-11-22T06:00:21.265Z,1.61
2018-11-22T06:01:21.262Z,1.71
2018-11-22T06:02:21.253Z,1.65
2018-11-22T06:03:21.314Z,1.76
2018-11-22T06:04:21.239Z,1.64
2018-11-22T06:05:21.232Z,1.68
2018-11-22T06:06:21.230Z,1.50
2018-11-22T06:07:21.217Z,1.44
2018-11-22T06:08:21.217Z,1.57
2018-11-22T06:09:21.234Z,1.52
2018-11-22T06:10:21.198Z,1.42
2018-11-22T06:11:21.191Z,1.42
2018-11-22T06:12:21.190Z,1.55
2018-11-22T06:13:21.180Z,1.52
2018-11-22T06:14:21.200Z,1.40
2018-11-22T06:15:21.160Z,1.39
2018-11-22T06:16:21.163Z,1.43
2018-11-22T06:17:21.152Z,1.47
2018-11-22T06:18:21.150Z,1.47
2018-11-22T06:19:21.212Z,1.37
2018-11-22T06:20:21.133Z,1.42
2018-11-22T06:21:21.119Z,1.44
2018-11-22T06:22:21.120Z,1.39
2018-11-22T06:23:21.107Z,1.39
2018-11-22T06:24:21.310Z,1.44
2018-11-22T06:25:21.102Z,1.43
2018-11-22T06:26:21.091Z,1.36
2018-11-22T06:27:21.087Z,1.40
2018-11-22T06:28:21.078Z,1.39
2018-11-22T06:29:21.095Z,1.39
2018-11-22T06:30:21.097Z,1.50
2018-11-22T06:31:21.062Z,1.52
2018-11-22T06:32:21.055Z,1.39
2018-11-22T06:33:21.047Z,1.39
2018-11-22T06:34:21.047Z,1.39
2018-11-22T06:35:21.063Z,1.40
2018-11-22T06:36:21.814Z,1.44
2018-11-22T06:37:21.026Z,1.39
2018-11-22T06:38:21.003Z,1.37
2018-11-22T06:39:21.007Z,1.42
2018-11-22T06:40:21.031Z,1.39
2018-11-22T06:41:20.991Z,1.44
2018-11-22T06:42:20.991Z,1.43
2018-11-22T06:43:21.005Z,1.47
2018-11-22T06:44:20.975Z,1.42
2018-11-22T06:45:21.000Z,1.44
2018-11-22T06:46:20.962Z,1.46
2018-11-22T06:47:20.953Z,1.42
2018-11-22T06:48:20.945Z,1.47
2018-11-22T06:49:20.938Z,1.40
2018-11-22T06:50:20.968Z,1.40
2018-11-22T06:51:20.925Z,1.42
2018-11-22T06:52:20.918Z,1.43
2018-11-22T06:53:20.912Z,1.40
2018-11-22T06:54:20.910Z,1.50
2018-11-22T06:55:20.926Z,1.47
2018-11-22T06:56:21.083Z,1.50
2018-11-22T06:57:20.889Z,1.52
2018-11-22T06:58:20.880Z,1.51
2018-11-22T06:59:20.873Z,1.47
2018-11-22T07:00:20.896Z,1.52
2018-11-22T07:01:20.864Z,1.47
2018-11-22T07:02:20.857Z,1.52
2018-11-22T07:03:20.849Z,1.51
2018-11-22T07:04:20.839Z,1.58
2018-11-22T07:05:20.868Z,1.57
2018-11-22T07:06:20.828Z,1.60
2018-11-22T07:07:20.823Z,1.47
2018-11-22T07:08:20.819Z,1.58
2018-11-22T07:09:20.808Z,1.52
2018-11-22T07:10:20.831Z,1.47
2018-11-22T07:11:20.796Z,1.50
2018-11-22T07:12:20.790Z,1.46
2018-11-22T07:13:20.784Z,1.44
2018-11-22T07:14:20.775Z,1.62
2018-11-22T07:15:20.797Z,1.52
2018-11-22T07:16:20.785Z,1.62
2018-11-22T07:17:20.756Z,1.62
2018-11-22T07:18:20.753Z,1.65
2018-11-22T07:19:20.743Z,1.62
2018-11-22T07:20:20.739Z,1.51
2018-11-22T07:21:20.759Z,1.58
2018-11-22T07:22:20.723Z,1.55
2018-11-22T07:23:20.720Z,1.54
2018-11-22T07:24:20.714Z,1.57
2018-11-22T07:25:20.707Z,1.51
2018-11-22T07:26:20.726Z,1.51
2018-11-22T07:27:20.691Z,1.57
2018-11-22T07:28:20.691Z,1.50
2018-11-22T07:29:20.681Z,1.50
2018-11-22T07:30:20.678Z,1.58
2018-11-22T07:31:20.694Z,1.62
2018-11-22T07:32:20.663Z,1.52
2018-11-22T07:33:20.655Z,1.60
2018-11-22T07:34:20.649Z,1.54
2018-11-22T07:35:20.642Z,1.50
2018-11-22T07:36:20.662Z,1.52
2018-11-22T07:37:20.626Z,1.44
2018-11-22T07:38:20.623Z,1.55
2018-11-22T07:39:20.614Z,1.60
2018-11-22T07:40:20.609Z,1.62
2018-11-22T07:41:20.626Z,1.62
2018-11-22T07:42:20.598Z,1.65
2018-11-22T07:43:20.589Z,1.65
2018-11-22T07:44:20.586Z,1.68
2018-11-22T07:45:20.603Z,1.64
2018-11-22T07:46:20.574Z,1.61
2018-11-22T07:47:20.593Z,1.68
2018-11-22T07:48:20.556Z,1.71
2018-11-22T07:49:20.553Z,1.62
2018-11-22T07:50:20.545Z,1.69
2018-11-22T07:51:20.538Z,1.61
2018-11-22T07:52:20.564Z,1.62
2018-11-22T07:53:20.528Z,1.62
2018-11-22T07:54:20.522Z,1.68
2018-11-22T07:55:20.513Z,1.69
2018-11-22T07:56:20.541Z,1.68
2018-11-22T07:57:20.528Z,1.61
2018-11-22T07:58:20.492Z,1.72
2018-11-22T07:59:20.489Z,1.87
2018-11-22T08:00:20.497Z,1.78
2018-11-22T08:01:20.471Z,1.90
2018-11-22T08:02:20.501Z,1.79
2018-11-22T08:03:20.462Z,1.90
2018-11-22T08:04:20.456Z,1.80
2018-11-22T08:05:20.452Z,1.89
2018-11-22T08:06:20.445Z,1.89
2018-11-22T08:07:20.466Z,1.87
2018-11-22T08:08:20.432Z,1.83
2018-11-22T08:09:20.428Z,1.71
2018-11-22T08:10:20.419Z,1.65
2018-11-22T08:11:20.407Z,1.73
2018-11-22T08:12:25.883Z,1.73
2018-11-22T08:13:20.397Z,1.73
2018-11-22T08:14:20.391Z,1.73
2018-11-22T08:15:20.384Z,1.89
2018-11-22T08:16:20.380Z,1.76
2018-11-22T08:17:20.403Z,1.78
2018-11-22T08:18:20.367Z,1.85
2018-11-22T08:19:20.364Z,1.82
2018-11-22T08:20:20.355Z,1.87
2018-11-22T08:21:20.375Z,1.85
2018-11-22T08:22:20.346Z,1.89
2018-11-22T08:23:20.364Z,2.04
2018-11-22T08:24:20.333Z,1.89
2018-11-22T08:25:20.323Z,1.85
2018-11-22T08:26:20.325Z,1.85
2018-11-22T08:27:20.311Z,1.83
2018-11-22T08:28:20.345Z,1.93
2018-11-22T08:29:20.299Z,1.87
2018-11-22T08:30:20.295Z,1.91
2018-11-22T08:31:20.289Z,1.99
2018-11-22T08:32:20.284Z,1.93
2018-11-22T08:33:20.302Z,1.85
2018-11-22T08:34:20.273Z,1.85
2018-11-22T08:35:20.261Z,1.90
2018-11-22T08:36:20.261Z,1.98
2018-11-22T08:37:20.250Z,1.98
2018-11-22T08:38:20.270Z,1.99
2018-11-22T08:39:20.237Z,1.97
2018-11-22T08:40:20.231Z,2.02
2018-11-22T08:41:20.229Z,1.97
2018-11-22T08:42:20.222Z,2.06
2018-11-22T08:43:20.241Z,2.12
2018-11-22T08:44:20.205Z,2.06
2018-11-22T08:45:20.201Z,2.06
2018-11-22T08:46:20.193Z,2.06
2018-11-22T08:47:20.190Z,2.06
2018-11-22T08:48:20.211Z,2.12
2018-11-22T08:49:20.178Z,2.17
2018-11-22T08:50:20.169Z,2.12
2018-11-22T08:51:20.193Z,2.12
2018-11-22T08:52:20.158Z,2.22
2018-11-22T08:53:20.153Z,2.12
2018-11-22T08:54:20.182Z,2.08
2018-11-22T08:55:20.141Z,2.13
2018-11-22T08:56:20.130Z,2.13
2018-11-22T08:57:20.129Z,2.10
2018-11-22T08:58:20.122Z,2.12
2018-11-22T08:59:20.146Z,2.17
2018-11-22T09:00:20.112Z,2.19
2018-11-22T09:01:20.105Z,2.26
2018-11-22T09:02:20.100Z,2.26
2018-11-22T09:03:20.096Z,2.26
2018-11-22T09:04:21.175Z,2.27
2018-11-22T09:05:20.084Z,2.17
2018-11-22T09:06:20.075Z,2.13
2018-11-22T09:07:20.075Z,2.23
2018-11-22T09:08:20.065Z,2.08
2018-11-22T09:09:20.059Z,2.19
2018-11-22T09:10:20.079Z,2.30
2018-11-22T09:11:20.047Z,2.34
2018-11-22T09:12:20.035Z,2.27
2018-11-22T09:13:20.031Z,2.20
2018-11-22T09:14:20.023Z,2.33
2018-11-22T09:15:20.047Z,2.35
2018-11-22T09:16:20.006Z,2.28
2018-11-22T09:17:20.011Z,2.27
2018-11-22T09:18:20.009Z,2.28
2018-11-22T09:19:19.995Z,2.40
2018-11-22T09:20:20.019Z,2.34
2018-11-22T09:21:19.982Z,2.37
2018-11-22T09:22:19.980Z,2.53
2018-11-22T09:23:19.968Z,2.48
2018-11-22T09:24:24.096Z,2.48
2018-11-22T09:25:19.991Z,2.51
2018-11-22T09:26:19.951Z,2.56
2018-11-22T09:27:19.950Z,2.41
2018-11-22T09:28:19.950Z,2.48
2018-11-22T09:29:19.963Z,2.52
2018-11-22T09:30:19.934Z,2.51
2018-11-22T09:31:19.926Z,2.59
2018-11-22T09:32:19.950Z,2.61
2018-11-22T09:33:19.926Z,2.66
2018-11-22T09:34:19.909Z,2.70
2018-11-22T09:35:19.975Z,2.48
2018-11-22T09:36:19.892Z,2.58
2018-11-22T09:37:19.897Z,2.76
2018-11-22T09:38:19.890Z,2.71
2018-11-22T09:39:19.876Z,2.74
2018-11-22T09:40:19.904Z,2.70
2018-11-22T09:41:19.872Z,2.74
2018-11-22T09:42:19.913Z,2.79
2018-11-22T09:43:19.860Z,2.79
2018-11-22T09:44:19.856Z,2.89
2018-11-22T09:45:19.874Z,2.88
2018-11-22T09:46:19.843Z,2.98
2018-11-22T09:47:19.839Z,3.12
2018-11-22T09:48:19.836Z,3.25
2018-11-22T09:49:19.835Z,3.09
2018-11-22T09:50:19.857Z,3.28
2018-11-22T09:51:19.832Z,3.39
2018-11-22T09:52:19.812Z,3.42
2018-11-22T09:53:19.812Z,3.36
2018-11-22T09:54:19.803Z,3.44
2018-11-22T09:55:19.827Z,3.43
2018-11-22T09:56:19.794Z,3.25
2018-11-22T09:57:19.801Z,3.30
2018-11-22T09:58:19.788Z,3.28
2018-11-22T09:59:19.836Z,3.28
2018-11-22T10:00:19.799Z,3.05
2018-11-22T10:01:19.771Z,3.21
2018-11-22T10:02:19.767Z,3.12
2018-11-22T10:03:19.767Z,3.03
2018-11-22T10:04:19.760Z,2.98
2018-11-22T10:05:19.871Z,3.13
2018-11-22T10:06:19.751Z,3.15
2018-11-22T10:07:19.746Z,3.30
2018-11-22T10:08:19.759Z,3.39
2018-11-22T10:09:19.755Z,3.50
2018-11-22T10:10:19.762Z,3.64
2018-11-22T10:11:19.729Z,3.75
2018-11-22T10:12:19.746Z,3.82
2018-11-22T10:13:19.718Z,3.62
2018-11-22T10:14:19.722Z,3.49
2018-11-22T10:15:19.742Z,3.58
2018-11-22T10:16:19.710Z,3.62
2018-11-22T10:17:19.701Z,3.53
2018-11-22T10:18:19.702Z,3.54
2018-11-22T10:19:19.704Z,3.40
2018-11-22T10:20:19.726Z,3.28
2018-11-22T10:21:19.692Z,3.16
2018-11-22T10:22:19.716Z,3.24
2018-11-22T10:23:19.682Z,3.36
2018-11-22T10:24:19.731Z,3.39
2018-11-22T10:25:19.697Z,3.42
2018-11-22T10:26:19.672Z,3.44
2018-11-22T10:27:19.665Z,3.42
2018-11-22T10:28:19.664Z,3.27
2018-11-22T10:29:19.690Z,3.39
2018-11-22T10:30:19.710Z,3.44
2018-11-22T10:31:19.712Z,3.40
2018-11-22T10:32:19.713Z,3.49
2018-11-22T10:33:19.639Z,3.49
2018-11-22T10:34:19.629Z,3.49
2018-11-22T10:35:19.708Z,3.54
2018-11-22T10:36:19.661Z,3.75
2018-11-22T10:37:19.616Z,3.75
2018-11-22T10:38:19.639Z,3.70
2018-11-22T10:40:11.762Z,3.79
2018-11-22T10:41:11.373Z,3.85
2018-11-22T10:42:11.509Z,3.96
2018-11-22T10:43:11.399Z,3.94
2018-11-22T10:44:11.818Z,4.10
2018-11-22T10:45:11.377Z,4.24
2018-11-22T10:46:11.355Z,4.22
2018-11-22T10:47:11.343Z,4.14
2018-11-22T10:48:11.392Z,4.16
2018-11-22T10:49:11.387Z,4.14
2018-11-22T10:50:11.413Z,3.92
2018-11-22T10:51:11.340Z,3.90
2018-11-22T10:52:11.345Z,3.79
2018-11-22T10:53:11.351Z,3.75
2018-11-22T10:54:11.344Z,3.80
2018-11-22T10:55:11.312Z,3.82
2018-11-22T10:56:11.343Z,3.71
2018-11-22T10:57:11.305Z,3.61
2018-11-22T10:58:11.296Z,3.65
2018-11-22T10:59:11.301Z,3.62
2018-11-22T11:00:11.435Z,3.68
2018-11-22T11:01:11.318Z,3.61
2018-11-22T11:02:11.294Z,3.75
2018-11-22T11:03:11.281Z,3.58
2018-11-22T11:04:11.277Z,3.60
2018-11-22T11:05:11.309Z,3.65
2018-11-22T11:06:11.274Z,3.61
2018-11-22T11:07:11.264Z,3.61
2018-11-22T11:08:11.290Z,3.75
2018-11-22T11:09:11.252Z,3.72
2018-11-22T11:10:11.249Z,3.80
2018-11-22T11:11:11.279Z,3.92
2018-11-22T11:12:11.248Z,3.96
2018-11-22T11:13:11.242Z,4.06
2018-11-22T11:14:11.234Z,3.96
2018-11-22T11:15:11.232Z,3.94
2018-11-22T11:16:11.256Z,4.16
2018-11-22T11:17:11.229Z,4.18
2018-11-22T11:18:11.221Z,4.24
2018-11-22T11:19:11.218Z,4.16
2018-11-22T11:20:11.211Z,4.15
2018-11-22T11:21:11.238Z,4.22
2018-11-22T11:22:11.207Z,4.14
2018-11-22T11:23:11.204Z,4.18
2018-11-22T11:24:11.204Z,4.03
2018-11-22T11:25:11.193Z,4.06
2018-11-22T11:26:11.216Z,3.96
2018-11-22T11:27:11.179Z,3.88
2018-11-22T11:28:11.184Z,3.96
2018-11-22T11:29:12.801Z,3.89
2018-11-22T11:30:11.171Z,3.80
2018-11-22T11:31:11.202Z,3.85
2018-11-22T11:32:11.171Z,3.80
2018-11-22T11:33:11.159Z,3.71
2018-11-22T11:34:11.155Z,3.50
2018-11-22T11:35:11.152Z,3.44
2018-11-22T11:36:14.100Z,3.46
2018-11-22T11:37:11.143Z,3.50
2018-11-22T11:38:11.135Z,3.53
2018-11-22T11:39:11.131Z,3.50
2018-11-22T11:40:11.315Z,3.44
2018-11-22T11:41:11.154Z,3.44
2018-11-22T11:42:11.121Z,3.46
2018-11-22T11:43:11.127Z,3.46
2018-11-22T11:44:11.113Z,3.53
2018-11-22T11:45:11.114Z,3.52
2018-11-22T11:46:11.134Z,3.43
2018-11-22T11:47:11.106Z,3.43
2018-11-22T11:48:11.104Z,3.44
2018-11-22T11:49:11.122Z,3.50
2018-11-22T11:50:11.082Z,3.54
2018-11-22T11:51:11.115Z,3.39
2018-11-22T11:52:11.083Z,3.40
2018-11-22T11:53:11.074Z,3.36
2018-11-22T11:54:11.073Z,3.43
2018-11-22T11:55:11.094Z,3.36
2018-11-22T11:56:11.057Z,3.40
2018-11-22T11:57:11.054Z,3.30
2018-11-22T11:58:11.046Z,3.40
2018-11-22T11:59:11.079Z,3.36
2018-11-22T12:00:11.042Z,3.39
2018-11-22T12:01:11.060Z,3.36
2018-11-22T12:02:15.224Z,3.46
2018-11-22T12:03:11.029Z,3.53
2018-11-22T12:04:11.026Z,3.53
2018-11-22T12:05:11.018Z,3.53
2018-11-22T12:06:11.033Z,3.52
2018-11-22T12:07:11.001Z,3.57
2018-11-22T12:08:10.998Z,3.43
2018-11-22T12:09:10.997Z,3.42
2018-11-22T12:10:10.989Z,3.52
2018-11-22T12:11:11.014Z,3.58
2018-11-22T12:12:10.980Z,3.70
2018-11-22T12:13:10.977Z,3.62
2018-11-22T12:14:10.976Z,3.50
2018-11-22T12:15:10.971Z,3.58
2018-11-22T12:16:10.989Z,3.54
2018-11-22T12:17:10.963Z,3.54
2018-11-22T12:18:10.952Z,3.52
2018-11-22T12:19:10.949Z,3.49
2018-11-22T12:20:10.967Z,3.47
2018-11-22T12:21:10.933Z,3.42
2018-11-22T12:22:10.928Z,3.49
2018-11-22T12:23:10.926Z,3.42
2018-11-22T12:24:10.952Z,3.50
2018-11-22T12:25:10.916Z,3.43
2018-11-22T12:26:10.941Z,3.53
2018-11-22T12:27:10.904Z,3.43
2018-11-22T12:28:10.904Z,3.43
2018-11-22T12:29:10.897Z,3.39
2018-11-22T12:30:10.890Z,3.44
2018-11-22T12:31:10.912Z,3.53
2018-11-22T12:32:10.876Z,3.44
2018-11-22T12:33:10.879Z,3.44
2018-11-22T12:34:10.868Z,3.44
2018-11-22T12:35:10.872Z,3.40
2018-11-22T12:36:10.885Z,3.50
2018-11-22T12:37:10.857Z,3.31
2018-11-22T12:38:10.861Z,3.31
2018-11-22T12:39:10.842Z,3.44
2018-11-22T12:40:10.867Z,3.49
2018-11-22T12:41:10.857Z,3.44
2018-11-22T12:42:10.833Z,3.52
2018-11-22T12:43:10.835Z,3.47
2018-11-22T12:44:10.817Z,3.39
2018-11-22T12:45:10.815Z,3.36
2018-11-22T12:46:10.838Z,3.25
2018-11-22T12:47:10.800Z,3.28
2018-11-22T12:48:10.795Z,3.25
2018-11-22T12:49:10.788Z,3.27
2018-11-22T12:50:10.784Z,3.21
2018-11-22T12:51:10.816Z,3.16
2018-11-22T12:52:10.779Z,3.25
2018-11-22T12:53:10.771Z,3.18
2018-11-22T12:54:10.767Z,3.23
2018-11-22T12:55:10.764Z,3.30
2018-11-22T12:56:10.787Z,3.21
2018-11-22T12:57:10.823Z,3.25
2018-11-22T12:58:10.740Z,3.24
2018-11-22T12:59:10.747Z,3.27
2018-11-22T13:00:10.732Z,3.25
2018-11-22T13:01:10.765Z,3.21
2018-11-22T13:02:11.412Z,3.28
2018-11-22T13:03:10.715Z,3.21
2018-11-22T13:04:10.718Z,3.24
2018-11-22T13:05:11.451Z,3.28
2018-11-22T13:06:10.705Z,3.21
2018-11-22T13:07:10.696Z,3.24
2018-11-22T13:08:10.710Z,3.23
2018-11-22T13:09:10.682Z,3.21
2018-11-22T13:10:10.705Z,3.23
2018-11-22T13:11:10.673Z,3.20
2018-11-22T13:12:10.674Z,3.21
2018-11-22T13:13:10.672Z,3.18
2018-11-22T13:14:10.658Z,3.24
2018-11-22T13:15:10.685Z,3.20
2018-11-22T13:16:10.650Z,3.24
2018-11-22T13:17:10.642Z,3.23
2018-11-22T13:18:10.642Z,3.21
2018-11-22T13:19:10.629Z,3.30